Time;durP1;ratioP1;P1;durP2;ratioP2;P2;SDS_P1;SDS_P2;PMS_P1;PMS_P2;Temp;Humidity;BMP_temperature;BMP_pressure;BME280_temperature;BME280_humidity;BME280_pressure;Samples;Min_cycle;Max_cycle;Signal;HPM_P1;HPM_P2
2023/08/10 00:03:05;;;;;;;2.63;2.43;;;;;;;20.83;58.30;99117.84;6868879;28;20284;-83
2023/08/10 00:06:27;;;;;;;3.17;2.73;;;;;;;20.65;58.50;99118.25;6868297;28;20288;-82
2023/08/10 00:09:48;;;;;;;2.93;2.63;;;;;;;20.67;57.66;99107.03;6868300;28;20241;-83
2023/08/10 00:13:19;;;;;;;3.50;3.20;;;;;;;20.49;58.88;99124.69;6862829;28;20380;-80
2023/08/10 00:16:40;;;;;;;2.90;2.70;;;;;;;20.44;59.13;99126.53;6863366;28;20324;-80
2023/08/10 00:20:05;;;;;;;3.50;3.03;;;;;;;20.29;59.01;99113.53;6865769;28;20249;-80
2023/08/10 00:23:27;;;;;;;4.30;3.07;;;;;;;20.22;59.05;99117.59;6865921;28;20261;-80
2023/08/10 00:26:49;;;;;;;4.83;3.17;;;;;;;20.26;59.56;99122.28;6866059;28;20272;-83
2023/08/10 00:30:12;;;;;;;3.17;2.97;;;;;;;20.39;59.45;99126.53;6871108;28;20248;-83
2023/08/10 00:33:34;;;;;;;3.10;2.90;;;;;;;20.30;59.52;99115.22;6870606;28;20271;-83
2023/08/10 00:36:55;;;;;;;4.00;3.20;;;;;;;20.36;59.02;99127.88;6871058;28;20721;-83
2023/08/10 00:40:17;;;;;;;3.60;3.30;;;;;;;20.17;59.76;99121.09;6870327;28;20217;-82
2023/08/10 00:43:40;;;;;;;3.00;2.80;;;;;;;20.26;59.35;99121.44;6871183;28;20324;-83
2023/08/10 00:47:03;;;;;;;3.70;2.80;;;;;;;20.15;59.23;99115.06;6872736;28;20210;-83
2023/08/10 00:50:25;;;;;;;3.30;2.97;;;;;;;20.19;59.13;99109.88;6866017;28;20265;-81
2023/08/10 00:53:46;;;;;;;3.13;2.83;;;;;;;20.16;59.16;99121.38;6851868;29;20214;-84
2023/08/10 00:57:26;;;;;;;3.40;3.10;;;;;;;19.88;59.88;99133.34;7030705;27;20557;-83
2023/08/10 01:00:47;;;;;;;4.07;3.30;;;;;;;19.67;59.67;99131.47;7031678;28;20587;-84
2023/08/10 01:04:09;;;;;;;5.33;3.00;;;;;;;19.47;60.15;99127.66;7027291;28;20346;-83
2023/08/10 01:07:35;;;;;;;3.27;2.90;;;;;;;19.63;59.97;99124.03;7019591;28;20295;-84
2023/08/10 01:11:04;;;;;;;3.03;2.83;;;;;;;19.63;59.66;99135.78;7024023;28;20252;-81
2023/08/10 01:14:32;;;;;;;7.40;4.17;;;;;;;19.52;59.92;99136.75;7024374;28;20235;-82
2023/08/10 01:17:56;;;;;;;4.87;3.30;;;;;;;19.35;60.46;99122.28;7017225;28;20698;-82
2023/08/10 01:21:28;;;;;;;3.23;3.03;;;;;;;19.34;59.79;99136.25;7023700;28;20363;-81
2023/08/10 01:25:00;;;;;;;4.37;3.60;;;;;;;18.84;61.08;99140.94;7024124;28;20668;-81
2023/08/10 01:28:22;;;;;;;9.70;3.60;;;;;;;18.63;62.47;99138.97;7023560;28;20196;-82
2023/08/10 01:31:44;;;;;;;4.37;3.97;;;;;;;18.68;61.94;99125.38;7024072;28;20306;-82
2023/08/10 01:35:06;;;;;;;3.43;3.13;;;;;;;18.91;61.51;99147.03;7023329;28;20671;-82
2023/08/10 01:38:28;;;;;;;4.43;3.43;;;;;;;18.97;61.65;99146.03;7023142;28;20205;-82
2023/08/10 01:41:51;;;;;;;3.90;3.43;;;;;;;19.03;61.13;99147.78;7023344;28;20366;-81
2023/08/10 01:45:13;;;;;;;3.93;3.60;;;;;;;19.01;60.50;99148.03;7023396;28;20721;-82
2023/08/10 01:48:37;;;;;;;3.50;3.20;;;;;;;19.12;59.56;99146.28;7023267;28;20248;-82
2023/08/10 01:51:59;;;;;;;5.10;3.60;;;;;;;18.87;60.03;99126.78;7023543;28;20311;-82
2023/08/10 01:55:21;;;;;;;5.03;3.13;;;;;;;18.90;59.84;99137.19;7022748;28;20270;-81
2023/08/10 01:58:44;;;;;;;4.63;3.20;;;;;;;18.69;60.15;99146.16;7022744;28;20212;-82
2023/08/10 02:02:06;;;;;;;3.73;3.30;;;;;;;18.51;60.46;99133.56;7022626;28;20687;-82
2023/08/10 02:05:27;;;;;;;3.33;3.03;;;;;;;18.52;60.66;99137.94;7022763;28;20690;-83
2023/08/10 02:08:49;;;;;;;3.87;3.00;;;;;;;18.53;60.68;99157.91;7002890;28;20678;-82
2023/08/10 02:12:10;;;;;;;6.90;3.10;;;;;;;18.39;61.03;99151.94;7003968;28;20251;-83
2023/08/10 02:15:33;;;;;;;5.13;3.73;;;;;;;17.83;61.54;99154.69;7002573;28;20710;-82
2023/08/10 02:18:55;;;;;;;4.93;3.53;;;;;;;18.16;61.86;99156.69;7001768;28;20206;-82
2023/08/10 02:22:16;;;;;;;4.70;3.27;;;;;;;18.36;61.17;99151.59;7002972;28;20228;-82
2023/08/10 02:25:38;;;;;;;4.10;3.47;;;;;;;18.10;60.84;99103.88;7002791;28;20362;-83
2023/08/10 02:29:00;;;;;;;6.10;3.40;;;;;;;18.24;60.90;99135.28;7002934;28;20210;-82
2023/08/10 02:32:22;;;;;;;3.90;3.60;;;;;;;18.25;61.21;99150.56;7002580;28;20834;-84
2023/08/10 02:35:44;;;;;;;4.20;3.80;;;;;;;18.33;61.08;99144.72;7002363;28;20226;-83
2023/08/10 02:39:05;;;;;;;3.97;3.43;;;;;;;18.36;60.93;99144.25;7002687;28;20241;-81
2023/08/10 02:42:27;;;;;;;4.03;3.60;;;;;;;18.23;61.03;99149.97;7001483;28;20251;-83
2023/08/10 02:45:48;;;;;;;4.67;3.47;;;;;;;18.22;60.86;99144.78;7002725;28;20744;-83
2023/08/10 02:49:12;;;;;;;3.70;3.40;;;;;;;18.21;61.31;99154.84;7002725;28;20283;-82
2023/08/10 02:52:34;;;;;;;4.07;3.67;;;;;;;17.87;62.21;99155.84;6981192;28;20263;-84
2023/08/10 02:55:56;;;;;;;4.10;3.70;;;;;;;17.87;62.22;99138.66;6983586;28;20229;-83
2023/08/10 02:59:17;;;;;;;4.20;3.90;;;;;;;17.70;63.05;99154.13;6986519;28;20258;-83
2023/08/10 03:02:40;;;;;;;6.40;3.83;;;;;;;17.74;62.81;99149.84;6987706;28;20233;-83
2023/08/10 03:06:03;;;;;;;4.10;3.80;;;;;;;17.96;62.58;99159.84;6998146;28;20265;-83
2023/08/10 03:09:25;;;;;;;5.20;4.00;;;;;;;17.97;62.67;99163.38;7004625;28;20270;-83
2023/08/10 03:12:47;;;;;;;4.33;3.70;;;;;;;18.01;61.99;99164.56;7002355;28;20226;-83
2023/08/10 03:16:09;;;;;;;4.90;3.23;;;;;;;18.29;61.68;99159.09;6982210;28;20297;-82
2023/08/10 03:19:30;;;;;;;5.67;3.50;;;;;;;18.16;61.86;99164.88;7002423;28;20212;-83
2023/08/10 03:22:53;;;;;;;6.40;3.90;;;;;;;17.77;62.42;99163.00;7003185;28;20258;-83
2023/08/10 03:26:15;;;;;;;4.10;3.60;;;;;;;18.32;61.61;99164.91;7003654;28;20746;-84
2023/08/10 03:29:36;;;;;;;7.23;3.37;;;;;;;18.44;59.93;99134.81;7004499;28;20294;-83
2023/08/10 03:32:57;;;;;;;3.60;3.30;;;;;;;18.27;60.56;99145.69;7004153;28;20267;-82
2023/08/10 03:36:20;;;;;;;6.30;3.30;;;;;;;18.22;60.02;99156.50;7002591;28;20281;-83
2023/08/10 03:39:42;;;;;;;3.90;3.37;;;;;;;17.02;62.12;99049.63;7003964;28;20371;-83
2023/08/10 03:43:04;;;;;;;6.10;4.13;;;;;;;17.54;62.65;99160.34;7003340;28;20684;-82
2023/08/10 03:46:26;;;;;;;5.50;4.00;;;;;;;17.95;62.39;99158.19;7002549;28;20303;-82
2023/08/10 03:49:48;;;;;;;4.57;3.63;;;;;;;17.88;62.40;99173.84;7008124;28;20346;-84
2023/08/10 03:53:09;;;;;;;4.47;3.43;;;;;;;17.82;62.33;99168.56;7011284;28;20226;-84
2023/08/10 03:56:32;;;;;;;4.20;3.80;;;;;;;17.62;63.19;99184.47;7004928;28;20276;-83
2023/08/10 03:59:55;;;;;;;4.47;4.07;;;;;;;17.69;62.87;99156.00;7003680;28;20355;-83
2023/08/10 04:03:17;;;;;;;4.20;3.80;;;;;;;18.17;62.44;99174.69;7002815;28;20701;-83
2023/08/10 04:06:39;;;;;;;3.90;3.60;;;;;;;18.12;61.71;99180.91;7003108;28;20197;-81
2023/08/10 04:10:01;;;;;;;4.00;3.60;;;;;;;17.97;61.67;99175.13;7003137;28;20208;-83
2023/08/10 04:13:24;;;;;;;4.23;3.93;;;;;;;17.98;61.85;99165.06;7003163;28;20236;-83
2023/08/10 04:16:46;;;;;;;4.03;3.70;;;;;;;18.12;61.67;99163.69;7002105;28;20363;-83
2023/08/10 04:20:09;;;;;;;4.90;3.90;;;;;;;17.67;62.16;99170.97;7002103;28;20198;-82
2023/08/10 04:23:31;;;;;;;5.03;4.50;;;;;;;17.78;62.91;99165.50;7002508;28;20225;-84
2023/08/10 04:26:52;;;;;;;4.33;3.90;;;;;;;17.64;62.48;99155.09;7003802;28;20200;-86
2023/08/10 04:30:16;;;;;;;3.97;3.67;;;;;;;17.96;61.88;99170.75;7002802;28;20243;-84
2023/08/10 04:33:38;;;;;;;4.17;3.77;;;;;;;17.82;62.15;99179.47;6998020;28;20221;-83
2023/08/10 04:36:59;;;;;;;6.33;4.20;;;;;;;17.55;63.09;99187.38;6977802;28;20225;-83
2023/08/10 04:40:23;;;;;;;4.90;4.40;;;;;;;18.03;62.66;99187.81;6979413;28;20616;-80
2023/08/10 04:43:45;;;;;;;8.43;4.70;;;;;;;17.93;63.16;99179.41;6975305;28;20574;-81
2023/08/10 04:47:08;;;;;;;5.20;4.27;;;;;;;18.03;61.98;99186.97;6993471;28;20199;-80
2023/08/10 04:50:31;;;;;;;4.10;3.80;;;;;;;17.91;62.29;99158.91;6998566;28;20229;-80
2023/08/10 04:53:53;;;;;;;4.47;3.70;;;;;;;18.06;60.90;99145.56;6998742;28;20243;-79
2023/08/10 04:57:14;;;;;;;4.30;3.90;;;;;;;18.21;62.40;99192.25;6998033;28;20712;-81
2023/08/10 05:00:36;;;;;;;4.60;4.20;;;;;;;18.38;62.15;99187.66;7001940;28;20374;-85
2023/08/10 05:03:59;;;;;;;4.30;3.90;;;;;;;17.84;62.24;99084.56;7002250;28;20294;-80
2023/08/10 05:07:23;;;;;;;6.03;4.10;;;;;;;18.49;62.15;99192.22;6998986;28;20215;-82
2023/08/10 05:10:44;;;;;;;5.70;4.00;;;;;;;18.47;62.03;99200.69;6997092;28;20225;-82
2023/08/10 05:14:13;;;;;;;4.43;4.03;;;;;;;18.38;62.65;99199.44;6979610;28;20342;-81
2023/08/10 05:17:34;;;;;;;6.27;4.50;;;;;;;18.29;63.26;99214.50;6997392;28;20267;-80
2023/08/10 05:21:00;;;;;;;4.80;4.40;;;;;;;18.72;62.78;99200.28;6996381;28;20962;-82
2023/08/10 05:24:22;;;;;;;4.17;3.77;;;;;;;18.95;61.88;99189.19;6980249;28;20237;-82
2023/08/10 05:27:43;;;;;;;6.00;4.27;;;;;;;19.10;62.12;99194.91;6970388;28;20365;-82
2023/08/10 05:31:05;;;;;;;3.70;3.40;;;;;;;19.87;60.58;99193.81;6986949;28;20237;-80
2023/08/10 05:34:26;;;;;;;3.77;3.27;;;;;;;19.56;58.82;99087.81;6997944;28;20206;-80
2023/08/10 05:37:49;;;;;;;4.10;3.40;;;;;;;19.82;59.01;99051.47;6996998;28;20225;-81
2023/08/10 05:41:11;;;;;;;3.23;2.93;;;;;;;20.37;57.20;99167.03;6998204;28;20227;-80
2023/08/10 05:44:34;;;;;;;4.20;3.10;;;;;;;21.08;57.43;99200.31;7002966;28;20232;-81
2023/08/10 05:47:56;;;;;;;3.43;3.13;;;;;;;20.80;58.39;99150.44;7002702;28;20220;-82
2023/08/10 05:51:17;;;;;;;2.50;2.30;;;;;;;21.71;55.39;99206.50;7003941;28;20232;-80
2023/08/10 05:54:40;;;;;;;2.60;2.40;;;;;;;22.17;54.18;99202.84;7003190;28;20205;-81
2023/08/10 05:58:02;;;;;;;2.30;2.20;;;;;;;22.36;53.91;99209.47;7002869;28;20310;-81
2023/08/10 06:01:23;;;;;;;2.90;2.67;;;;;;;22.39;53.36;99214.44;7003322;28;20251;-80
2023/08/10 06:04:45;;;;;;;4.03;2.30;;;;;;;22.72;53.38;99204.91;7002823;28;20775;-80
2023/08/10 06:08:08;;;;;;;2.73;2.40;;;;;;;22.89;52.85;99220.03;7000859;28;20202;-80
2023/08/10 06:11:31;;;;;;;2.50;2.30;;;;;;;22.60;53.23;99215.34;6976051;28;20805;-81
2023/08/10 06:14:52;;;;;;;2.40;2.20;;;;;;;22.36;53.75;99150.97;6976868;28;20243;-80
2023/08/10 06:18:14;;;;;;;2.67;2.47;;;;;;;22.74;53.73;99230.22;6974083;28;20271;-81
2023/08/10 06:21:36;;;;;;;3.03;2.80;;;;;;;22.91;52.65;99228.03;6985887;28;20266;-84
2023/08/10 06:24:58;;;;;;;3.33;2.60;;;;;;;23.15;51.32;99232.72;7002190;28;20648;-81
2023/08/10 06:28:21;;;;;;;4.53;2.70;;;;;;;22.91;52.07;99215.13;7001387;28;20198;-82
2023/08/10 06:31:46;;;;;;;3.50;2.67;;;;;;;22.71;52.22;99225.28;7001757;28;20278;-79
2023/08/10 06:35:09;;;;;;;3.40;3.00;;;;;;;22.41;53.60;99238.88;7003354;28;20287;-82
2023/08/10 06:38:31;;;;;;;4.20;3.27;;;;;;;21.87;56.08;99241.16;6992517;28;20321;-83
2023/08/10 06:41:52;;;;;;;3.70;2.90;;;;;;;21.89;55.88;99217.00;6974166;28;20236;-81
2023/08/10 06:45:21;;;;;;;4.43;3.40;;;;;;;21.05;57.24;99139.69;6978728;28;20208;-83
2023/08/10 06:48:43;;;;;;;3.60;3.30;;;;;;;21.64;57.38;99236.06;6994474;28;20293;-81
2023/08/10 06:52:05;;;;;;;3.60;3.30;;;;;;;21.51;57.46;99249.44;6990116;28;20241;-83
2023/08/10 06:55:27;;;;;;;4.27;3.33;;;;;;;20.60;58.95;99156.56;6999025;28;20294;-82
2023/08/10 06:58:49;;;;;;;3.93;3.30;;;;;;;21.36;58.52;99244.66;6998003;28;20218;-84
2023/08/10 07:02:12;;;;;;;3.77;3.40;;;;;;;21.63;58.46;99241.81;6999164;28;20261;-82
2023/08/10 07:05:37;;;;;;;3.23;3.03;;;;;;;21.75;58.13;99215.84;6971891;28;20580;-82
2023/08/10 07:08:59;;;;;;;2.80;2.60;;;;;;;21.83;58.24;99256.50;6971608;28;20220;-82
2023/08/10 07:12:20;;;;;;;3.13;2.93;;;;;;;22.00;58.17;99243.44;6971863;28;20260;-83
2023/08/10 07:15:42;;;;;;;3.20;2.90;;;;;;;22.36;57.36;99252.63;6970895;28;20219;-85
2023/08/10 07:19:06;;;;;;;6.50;2.90;;;;;;;22.35;57.47;99250.97;6970139;28;20248;-83
2023/08/10 07:22:28;;;;;;;3.00;2.70;;;;;;;22.55;56.70;99246.38;6978110;28;20245;-82
2023/08/10 07:25:50;;;;;;;5.07;3.10;;;;;;;22.22;56.89;99213.00;6996356;28;20702;-84
2023/08/10 07:29:12;;;;;;;2.83;2.60;;;;;;;22.71;56.17;99256.31;6995970;28;20221;-85
2023/08/10 07:32:34;;;;;;;2.70;2.50;;;;;;;23.34;54.19;99253.09;6973463;28;20236;-84
2023/08/10 07:35:59;;;;;;;2.40;2.20;;;;;;;23.28;52.82;99231.34;6972105;28;20293;-83
2023/08/10 07:39:20;;;;;;;3.30;3.00;;;;;;;23.08;53.57;99247.84;6973230;28;20199;-83
2023/08/10 07:42:42;;;;;;;3.07;2.77;;;;;;;23.29;54.76;99255.00;6974033;28;20278;-83
2023/08/10 07:46:04;;;;;;;3.63;2.80;;;;;;;22.96;54.90;99258.28;6972921;28;20213;-85
2023/08/10 07:49:25;;;;;;;4.07;2.73;;;;;;;23.51;53.34;99259.13;6972296;28;20245;-83
2023/08/10 07:52:50;;;;;;;3.70;2.40;;;;;;;23.81;52.08;99245.28;6971928;28;20232;-83
2023/08/10 07:56:12;;;;;;;2.90;2.60;;;;;;;23.62;51.50;99191.09;6988517;28;20226;-83
2023/08/10 07:59:51;;;;;;;2.70;2.50;;;;;;;24.16;50.73;99271.91;7004302;28;20267;-82
2023/08/10 08:03:12;;;;;;;3.27;2.60;;;;;;;23.70;51.74;99262.94;7018800;28;20292;-87
2023/08/10 08:06:34;;;;;;;3.00;2.20;;;;;;;24.25;50.40;99262.78;6998857;28;20659;-84
2023/08/10 08:09:57;;;;;;;2.43;2.23;;;;;;;24.47;49.34;99270.66;6999550;28;20293;-86
2023/08/10 08:13:20;;;;;;;3.20;2.37;;;;;;;24.21;49.54;99200.25;6989867;28;20222;-84
2023/08/10 08:16:42;;;;;;;3.17;2.60;;;;;;;24.51;48.97;99208.34;6983328;28;20270;-84
2023/08/10 08:20:03;;;;;;;2.60;2.40;;;;;;;25.09;47.62;99260.66;6994341;28;20289;-83
2023/08/10 08:23:25;;;;;;;2.53;2.30;;;;;;;24.36;47.68;99156.09;6972263;28;20234;-83
2023/08/10 08:26:48;;;;;;;3.17;2.10;;;;;;;25.22;46.65;99268.28;6971972;28;20298;-81
2023/08/10 08:30:13;;;;;;;2.50;2.27;;;;;;;25.47;45.91;99264.50;6977278;28;20203;-82
2023/08/10 08:33:35;;;;;;;2.97;2.30;;;;;;;25.74;46.34;99262.88;6989707;28;20229;-83
2023/08/10 08:36:57;;;;;;;2.53;2.20;;;;;;;26.08;45.73;99263.59;6990234;28;20238;-84
2023/08/10 08:40:18;;;;;;;2.60;2.40;;;;;;;25.98;45.74;99263.72;7012055;28;20235;-84
2023/08/10 08:43:43;;;;;;;2.93;2.10;;;;;;;26.36;44.29;99251.63;7000220;28;20271;-85
2023/08/10 08:47:04;;;;;;;3.27;2.30;;;;;;;26.60;42.03;99255.22;6997535;28;20297;-86
2023/08/10 08:50:27;;;;;;;2.90;2.10;;;;;;;26.80;42.37;99243.03;6995904;28;20239;-83
2023/08/10 08:53:49;;;;;;;2.30;2.10;;;;;;;26.84;41.66;99233.81;6974843;28;20240;-85
2023/08/10 08:57:10;;;;;;;3.17;2.20;;;;;;;26.66;41.99;99233.84;6993078;28;20230;-84
2023/08/10 09:00:33;;;;;;;3.10;2.60;;;;;;;26.88;41.08;99243.19;6980931;28;20208;-84
2023/08/10 09:03:55;;;;;;;2.63;2.20;;;;;;;27.24;40.55;99240.72;6999432;28;20239;-84
2023/08/10 09:07:16;;;;;;;3.40;2.53;;;;;;;26.70;40.85;99246.78;7000265;28;20279;-83
2023/08/10 09:10:38;;;;;;;3.63;2.37;;;;;;;27.33;40.76;99241.66;7000550;28;20208;-84
2023/08/10 09:14:07;;;;;;;3.63;2.13;;;;;;;28.07;39.42;99241.41;7000341;28;20209;-84
2023/08/10 09:17:30;;;;;;;2.60;2.23;;;;;;;28.19;38.98;99220.31;7001840;28;20818;-84
2023/08/10 09:20:51;;;;;;;3.30;2.20;;;;;;;28.71;38.32;99228.06;7000603;28;20228;-83
2023/08/10 09:24:13;;;;;;;3.27;2.20;;;;;;;28.71;37.52;99216.16;6977531;28;20557;-83
2023/08/10 09:27:34;;;;;;;2.20;2.10;;;;;;;28.44;38.69;99217.06;6988869;28;20668;-83
2023/08/10 09:30:57;;;;;;;4.40;2.30;;;;;;;28.77;37.70;99212.16;7003269;28;20269;-83
2023/08/10 09:34:23;;;;;;;2.50;2.30;;;;;;;28.70;38.78;99208.97;6986528;28;20240;-86
2023/08/10 09:37:47;;;;;;;4.37;2.40;;;;;;;28.71;39.18;99219.75;6989827;28;20254;-82
2023/08/10 09:41:10;;;;;;;2.27;2.07;;;;;;;28.92;37.94;99209.81;6986308;28;20254;-82
2023/08/10 09:44:43;;;;;;;3.87;2.50;;;;;;;28.74;38.47;99199.72;6999904;28;20241;-84
2023/08/10 09:48:11;;;;;;;4.60;2.43;;;;;;;29.37;38.68;99197.56;6997391;28;20196;-83
2023/08/10 09:51:41;;;;;;;2.43;2.23;;;;;;;28.68;37.11;99195.41;6997646;28;20312;-83
2023/08/10 09:55:04;;;;;;;2.53;2.33;;;;;;;29.18;38.41;99176.72;6996205;28;20215;-82
2023/08/10 09:58:26;;;;;;;5.77;2.43;;;;;;;29.37;38.84;99189.25;6985390;28;20365;-82
2023/08/10 10:01:48;;;;;;;2.90;2.30;;;;;;;29.49;37.86;99183.09;6974642;28;20236;-86
2023/08/10 10:05:11;;;;;;;2.77;2.50;;;;;;;29.59;37.53;99183.69;6972571;28;20617;-83
2023/08/10 10:08:36;;;;;;;8.17;7.37;;;;;;;30.10;36.65;99172.78;6971447;28;20213;-85
2023/08/10 10:12:00;;;;;;;12.70;11.47;;;;;;;29.97;36.17;99184.00;6968011;28;20230;-85
2023/08/10 10:15:22;;;;;;;3.07;2.87;;;;;;;30.37;35.53;99171.69;6994221;28;20229;-85
2023/08/10 10:18:43;;;;;;;6.70;2.30;;;;;;;29.75;36.50;99175.72;6996537;28;20312;-86
2023/08/10 10:22:05;;;;;;;2.43;2.10;;;;;;;30.23;35.83;99176.56;7001565;28;20224;-86
2023/08/10 10:25:28;;;;;;;2.80;2.13;;;;;;;30.20;33.49;99102.13;6999979;28;20200;-85
2023/08/10 10:29:11;;;;;;;4.53;2.53;;;;;;;29.97;36.31;99131.16;6977776;28;20598;-84
2023/08/10 10:32:44;;;;;;;2.70;2.30;;;;;;;29.08;36.20;99116.69;7003530;28;20226;-87
2023/08/10 10:36:08;;;;;;;3.67;2.30;;;;;;;29.33;36.25;99154.91;7029855;28;20203;-85
2023/08/10 10:39:29;;;;;;;2.27;2.07;;;;;;;30.29;34.38;99151.06;7029224;28;20231;-84
2023/08/10 10:43:09;;;;;;;2.50;2.30;;;;;;;29.72;35.52;99127.16;7032129;28;20231;-83
2023/08/10 10:46:40;;;;;;;2.67;2.20;;;;;;;28.34;36.05;99122.09;7029938;28;20241;-86
2023/08/10 10:50:14;;;;;;;3.27;2.20;;;;;;;27.76;38.90;99146.06;7030513;28;20206;-83
2023/08/10 10:53:37;;;;;;;2.23;2.13;;;;;;;28.38;39.07;99148.13;6997453;28;20324;-84
2023/08/10 10:56:59;;;;;;;2.63;2.30;;;;;;;29.29;36.21;99136.41;6983524;28;20225;-84
2023/08/10 11:00:24;;;;;;;2.93;2.10;;;;;;;30.52;34.09;99123.91;7001941;28;20293;-84
2023/08/10 11:03:51;;;;;;;2.93;2.13;;;;;;;28.94;36.34;99037.34;6990296;28;20548;-83
2023/08/10 11:07:13;;;;;;;2.63;2.43;;;;;;;28.94;35.44;99090.94;7004882;28;20236;-84
2023/08/10 11:10:36;;;;;;;2.30;2.10;;;;;;;29.01;35.47;99123.84;6996764;28;20204;-84
2023/08/10 11:13:57;;;;;;;4.17;2.10;;;;;;;28.29;34.89;99039.00;6979014;28;20200;-83
2023/08/10 11:17:22;;;;;;;3.60;2.20;;;;;;;28.57;34.56;99074.69;6976694;28;20261;-83
2023/08/10 11:20:45;;;;;;;2.43;2.20;;;;;;;28.82;33.84;99118.44;6996041;28;20223;-83
2023/08/10 11:24:08;;;;;;;2.37;2.17;;;;;;;29.19;33.46;99056.94;7005417;28;20205;-84
2023/08/10 11:27:30;;;;;;;2.53;2.03;;;;;;;29.41;33.00;99104.13;7010144;28;20225;-83
2023/08/10 11:30:52;;;;;;;2.30;2.10;;;;;;;30.11;30.87;99095.72;7012930;28;20226;-86
2023/08/10 11:34:22;;;;;;;3.17;2.20;;;;;;;28.52;31.91;99110.03;7013505;28;20235;-84
2023/08/10 11:37:44;;;;;;;2.30;2.10;;;;;;;29.36;30.64;99101.47;7013146;28;20223;-84
2023/08/10 11:41:05;;;;;;;2.17;2.07;;;;;;;29.32;31.12;99099.66;7007223;28;20274;-83
2023/08/10 11:44:29;;;;;;;1.83;1.73;;;;;;;30.42;28.80;99086.06;7001260;28;20220;-84
2023/08/10 11:47:54;;;;;;;2.10;2.00;;;;;;;31.01;27.75;99090.78;6973958;28;20204;-84
2023/08/10 11:51:18;;;;;;;2.10;1.90;;;;;;;31.42;24.61;99090.22;6973287;28;20273;-85
2023/08/10 11:54:40;;;;;;;2.17;1.90;;;;;;;31.89;23.54;99045.19;6999186;28;20210;-84
2023/08/10 11:58:01;;;;;;;2.00;1.80;;;;;;;32.27;23.58;99085.03;7000576;28;20270;-84
2023/08/10 12:01:23;;;;;;;2.47;1.90;;;;;;;31.88;23.61;99006.47;7000848;28;20230;-84
2023/08/10 12:04:47;;;;;;;2.07;1.87;;;;;;;31.92;24.52;99040.91;6989055;28;20348;-84
2023/08/10 12:08:12;;;;;;;5.70;2.17;;;;;;;32.16;24.48;99014.00;6973485;28;20555;-84
2023/08/10 12:11:33;;;;;;;3.00;2.03;;;;;;;31.65;23.74;98975.28;6974566;28;20335;-84
2023/08/10 12:14:58;;;;;;;2.10;2.00;;;;;;;32.75;23.60;99088.06;6974477;28;20195;-84
2023/08/10 12:18:21;;;;;;;2.13;1.97;;;;;;;31.93;23.53;99062.91;6974491;28;20218;-84
2023/08/10 12:21:48;;;;;;;2.53;1.90;;;;;;;32.40;23.90;99083.09;6975007;28;20359;-84
2023/08/10 12:25:11;;;;;;;3.33;2.00;;;;;;;32.47;21.87;99066.63;7002227;28;20199;-83
2023/08/10 12:28:32;;;;;;;1.67;1.57;;;;;;;32.58;20.94;99074.25;7000125;28;20238;-83
2023/08/10 12:31:54;;;;;;;2.67;2.20;;;;;;;32.51;21.78;99082.38;7001314;28;20256;-83
2023/08/10 12:35:16;;;;;;;2.20;2.00;;;;;;;32.34;21.80;99087.25;7000799;28;20234;-84
2023/08/10 12:38:38;;;;;;;2.27;2.07;;;;;;;33.13;20.30;99077.47;6971947;28;20285;-84
2023/08/10 12:42:02;;;;;;;2.37;2.17;;;;;;;32.35;20.88;99077.72;6997521;28;20260;-84
2023/08/10 12:45:24;;;;;;;1.97;1.87;;;;;;;32.52;22.58;99063.63;6999084;28;20720;-85
2023/08/10 12:49:00;;;;;;;2.73;2.30;;;;;;;32.71;22.78;99081.50;6994826;28;20200;-84
2023/08/10 12:52:22;;;;;;;2.10;2.00;;;;;;;32.95;21.38;99081.63;6972351;28;20311;-85
2023/08/10 12:55:49;;;;;;;2.63;2.20;;;;;;;31.56;22.92;99068.50;6971405;28;20225;-85
2023/08/10 12:59:12;;;;;;;2.63;2.30;;;;;;;31.00;22.02;99015.91;6971393;28;20212;-84
2023/08/10 13:02:34;;;;;;;2.13;1.93;;;;;;;32.19;22.67;99007.72;6971743;28;20239;-83
2023/08/10 13:05:55;;;;;;;2.00;1.90;;;;;;;32.01;22.53;99091.91;6984742;28;20205;-90
2023/08/10 13:09:17;;;;;;;1.90;1.80;;;;;;;30.45;22.67;98943.50;6986260;28;20652;-84
2023/08/10 13:12:39;;;;;;;2.27;2.07;;;;;;;30.39;24.67;98983.78;6977504;28;20233;-84
2023/08/10 13:16:02;;;;;;;3.40;2.10;;;;;;;30.18;25.34;98976.41;6985647;28;20211;-86
2023/08/10 13:19:24;;;;;;;2.40;2.10;;;;;;;31.07;24.65;99097.81;6982429;28;20232;-84
2023/08/10 13:22:47;;;;;;;2.60;2.37;;;;;;;31.00;24.84;99040.97;6983423;28;20303;-83
2023/08/10 13:26:08;;;;;;;3.70;2.30;;;;;;;29.96;25.98;99094.19;7001398;28;20220;-83
2023/08/10 13:29:30;;;;;;;2.50;2.30;;;;;;;30.91;26.19;99087.53;7005059;28;20675;-84
2023/08/10 13:32:53;;;;;;;3.90;2.40;;;;;;;30.87;25.17;99048.41;7001631;28;20267;-83
2023/08/10 13:36:15;;;;;;;3.23;2.33;;;;;;;30.91;24.84;99076.41;6988417;28;20200;-84
2023/08/10 13:39:37;;;;;;;2.23;2.03;;;;;;;30.16;25.41;99018.50;6995667;28;20222;-83
2023/08/10 13:42:59;;;;;;;2.53;2.33;;;;;;;31.02;25.49;99074.91;6990936;28;20252;-83
2023/08/10 13:46:20;;;;;;;2.63;2.43;;;;;;;30.73;26.04;98986.50;6974807;28;20271;-84
2023/08/10 13:49:58;;;;;;;2.30;2.10;;;;;;;31.68;25.17;99072.22;6980705;28;20214;-84
2023/08/10 13:53:21;;;;;;;2.80;2.60;;;;;;;31.97;23.05;99072.22;6892084;28;20744;-85
2023/08/10 13:57:00;;;;;;;2.60;2.40;;;;;;;31.87;23.56;99060.63;6903791;28;20215;-84
2023/08/10 14:00:21;;;;;;;3.03;2.43;;;;;;;31.57;25.50;99058.97;6889166;28;20680;-83
2023/08/10 14:03:43;;;;;;;2.50;2.30;;;;;;;31.68;23.82;99051.88;6889697;28;20338;-84
2023/08/10 14:07:06;;;;;;;4.17;2.50;;;;;;;32.16;23.78;99055.84;6892242;28;20219;-86
2023/08/10 14:10:28;;;;;;;5.13;2.50;;;;;;;31.39;24.04;99041.53;6887839;28;20216;-86
2023/08/10 14:13:49;;;;;;;4.13;2.27;;;;;;;32.03;22.43;99051.34;6889100;28;20281;-87
2023/08/10 14:17:11;;;;;;;2.40;2.20;;;;;;;31.71;22.80;99060.38;6895554;28;20232;-87
2023/08/10 14:20:33;;;;;;;2.50;2.30;;;;;;;31.68;23.65;99054.66;6914725;28;20258;-86
2023/08/10 14:23:55;;;;;;;2.60;2.40;;;;;;;32.00;22.63;99048.41;6915120;28;20254;-86
2023/08/10 14:27:17;;;;;;;2.90;2.33;;;;;;;32.19;23.52;99046.00;6908538;28;20378;-87
2023/08/10 14:30:38;;;;;;;2.60;2.40;;;;;;;32.10;22.79;99040.47;6953927;28;20202;-87
2023/08/10 14:34:00;;;;;;;3.13;2.30;;;;;;;32.31;22.50;99048.88;6981465;28;20764;-86
2023/08/10 14:37:22;;;;;;;2.40;2.20;;;;;;;32.14;23.74;99035.03;7002040;28;20665;-87
2023/08/10 14:40:45;;;;;;;2.60;2.40;;;;;;;32.43;24.54;99027.41;6972118;28;20240;-87
2023/08/10 14:44:06;;;;;;;2.53;2.33;;;;;;;32.05;23.55;99020.31;6969917;28;20251;-86
2023/08/10 14:47:28;;;;;;;2.50;2.30;;;;;;;31.89;23.76;99034.03;6970804;28;20571;-86
2023/08/10 14:50:50;;;;;;;3.93;2.40;;;;;;;31.24;24.82;99038.50;6985949;28;20224;-84
2023/08/10 14:54:11;;;;;;;4.90;2.20;;;;;;;31.31;23.68;99047.16;6991955;28;20211;-86
2023/08/10 14:57:34;;;;;;;2.70;2.50;;;;;;;30.64;25.24;99033.06;6999143;28;20675;-87
2023/08/10 15:00:56;;;;;;;2.50;2.30;;;;;;;30.79;24.11;99028.94;7000145;28;20310;-86
2023/08/10 15:04:17;;;;;;;2.80;2.60;;;;;;;30.90;24.76;99036.59;6984311;28;20695;-85
2023/08/10 15:07:39;;;;;;;2.60;2.40;;;;;;;31.13;23.99;99046.34;6993271;28;20797;-85
2023/08/10 15:11:03;;;;;;;2.50;2.30;;;;;;;31.13;25.87;99039.97;6999460;28;20253;-87
2023/08/10 15:14:26;;;;;;;2.90;2.70;;;;;;;30.63;25.43;99019.41;6998069;28;20233;-84
2023/08/10 15:17:50;;;;;;;3.53;2.50;;;;;;;31.28;25.45;99040.28;6999577;28;20247;-90
2023/08/10 15:21:12;;;;;;;2.37;2.17;;;;;;;31.64;25.56;99035.00;7002474;28;20232;-84
2023/08/10 15:24:33;;;;;;;2.30;2.10;;;;;;;31.33;25.56;99030.91;7002360;28;20207;-84
2023/08/10 15:27:55;;;;;;;3.30;2.57;;;;;;;30.96;26.52;99021.31;6990428;28;20203;-84
2023/08/10 15:31:18;;;;;;;2.50;2.30;;;;;;;31.33;24.95;99031.72;6978434;28;20319;-85
2023/08/10 15:34:40;;;;;;;2.60;2.40;;;;;;;31.18;26.33;99034.19;6968678;28;20202;-84
2023/08/10 15:38:01;;;;;;;1.93;1.83;;;;;;;31.09;24.78;99019.50;6967633;28;20740;-84
2023/08/10 15:41:23;;;;;;;3.10;2.13;;;;;;;30.84;25.75;99028.75;6970904;28;20268;-83
2023/08/10 15:44:44;;;;;;;2.47;2.17;;;;;;;30.47;26.19;99027.47;6970981;28;20350;-85
2023/08/10 15:48:07;;;;;;;2.77;2.57;;;;;;;30.76;26.39;99024.84;6970598;28;20201;-84
2023/08/10 15:51:29;;;;;;;2.30;2.10;;;;;;;30.80;25.40;99019.41;6971616;28;20693;-84
2023/08/10 15:54:51;;;;;;;2.50;2.30;;;;;;;30.56;25.41;99025.50;6970762;28;20241;-85
2023/08/10 15:58:13;;;;;;;2.03;1.93;;;;;;;30.61;25.70;99005.81;6968781;28;20985;-85